ADDS METAR Data INFO
IDs: Format: Raw Decoded Include TAF

Data at: 1514 UTC 23 Oct 2017

PFEL 231456Z AUTO 34008KT 10SM CLR M11/M14 A2976 RMK AO2 SLP079 T11061144 51008 FZRANO
PFEL 231356Z AUTO 34007KT 10SM CLR M10/M14 A2976 RMK AO2 SLP078 T11001144 FZRANO
PFEL 231256Z AUTO 33008KT 10SM FEW090 M11/M14 A2975 RMK AO2 SLP074 T11061144 FZRANO
PFEL 231156Z AUTO 35007KT 10SM OVC095 M10/M14 A2974 RMK AO2 SLP071 T11001144 11089 21106 51014 FZRANO
PFEL 231056Z AUTO 34008KT 10SM OVC100 M10/M14 A2972 RMK AO2 SLP065 T11001139 FZRANO
PFEL 230956Z AUTO 02007KT 10SM OVC100 M10/M14 A2971 RMK AO2 SLP064 T11001139 FZRANO
PFEL 230856Z AUTO 35008KT 10SM FEW100 M11/M14 A2970 RMK AO2 SLP057 T11061139 410671106 53018 FZRANO
PFEL 230756Z AUTO 34009KT 10SM CLR M10/M13 A2968 RMK AO2 SLP051 T11001133 FZRANO
PFEL 230656Z AUTO 33008KT 10SM CLR M09/M13 A2966 RMK AO2 SLP045 T10941133 FZRANO
PFEL 230556Z AUTO 33007KT 10SM CLR M09/M13 A2964 RMK AO2 SLP039 T10941128 11067 21094 53013 FZRANO
PFEL 230456Z AUTO 34008KT 10SM CLR M08/M13 A2962 RMK AO2 SLP033 T10831128 FZRANO
PFEL 230356Z AUTO 33010KT 10SM CLR M08/M12 A2961 RMK AO2 SLP027 T10831122 FZRANO
PFEL 230256Z AUTO 35007KT 10SM SCT120 M08/M12 A2960 RMK AO2 SLP026 T10781117 53012 FZRANO
PFEL 230156Z AUTO 34007KT 10SM CLR M07/M12 A2959 RMK AO2 SLP022 T10721117 FZRANO
PFEL 230056Z AUTO 32007KT 10SM CLR M07/M12 A2958 RMK AO2 SLP017 T10721117 FZRANO
PFEL 222356Z AUTO 04004KT 10SM CLR M07/M11 A2957 RMK AO2 SLP014 T10671111 11067 21106 52011 FZRANO
PFEL 222256Z AUTO 02005KT 10SM CLR M07/M11 A2955 RMK AO2 SLP008 T10721111 FZRANO
PFEL 222156Z AUTO 01006KT 10SM CLR M08/M12 A2955 RMK AO2 SLP008 T10781117 FZRANO
PFEL 222056Z AUTO 02006KT 10SM CLR M09/M13 A2953 RMK AO2 SLP003 T10891133 51015 FZRANO
PFEL 221956Z AUTO 01007KT 10SM CLR M09/M13 A2953 RMK AO2 SLP001 T10891133 FZRANO
PFEL 221856Z AUTO 34007KT 10SM CLR M10/M13 A2950 RMK AO2 SLP992 T11001133 FZRANO
PFEL 221756Z AUTO 35004KT 10SM CLR M10/M13 A2949 RMK AO2 SLP988 T11001133 11083 21100 51018 FZRANO
PFEL 221656Z AUTO 35005KT 10SM CLR M10/M13 A2947 RMK AO2 SLP982 T11001133 FZRANO
PFEL 221556Z AUTO 01007KT 10SM CLR M09/M13 A2946 RMK AO2 SLP977 T10941133 FZRANO
PFEL 221456Z AUTO 01006KT 10SM CLR M10/M13 A2944 RMK AO2 SLP970 T11001128 53010 FZRANO
PFEL 221356Z AUTO 01006KT 10SM CLR M09/M13 A2943 RMK AO2 SLP967 T10941128 FZRANO
PFEL 221256Z AUTO 36008KT 10SM CLR M09/M12 A2941 RMK AO2 SLP962 T10941122 FZRANO
PFEL 221156Z AUTO 35009KT 10SM OVC048 M08/M12 A2941 RMK AO2 SLP960 T10831122 11078 21089 52009 FZRANO
PFEL 221056Z AUTO 32008KT 10SM OVC050 M09/M12 A2940 RMK AO2 SLP957 T10891117 FZRANO
PFEL 220956Z AUTO 35008KT 10SM FEW050 M08/M12 A2939 RMK AO2 SLP953 T10831117 FZRANO
PFEL 220856Z AUTO 33009KT 10SM BKN049 M08/M11 A2938 RMK AO2 SLP950 T10831111 410501083 51008 FZRANO
PFEL 220756Z AUTO 33009KT 10SM FEW050 M08/M11 A2937 RMK AO2 SLP948 T10831111 FZRANO
PFEL 220656Z AUTO 33010KT 10SM CLR M08/M11 A2937 RMK AO2 SLP946 T10831111 FZRANO
PFEL 220556Z AUTO 35008KT 10SM FEW050 M08/M11 A2935 RMK AO2 SNB27E40 SLP942 P0000 60000 T10781106 11050 21078 51007 FZRANO
PFEL 220456Z AUTO 34008KT 10SM BKN038 OVC049 M07/M10 A2935 RMK AO2 SLP940 T10721100 FZRANO
PFEL 220356Z AUTO 36009KT 10SM BKN033 BKN120 M07/M10 A2934 RMK AO2 SNB0259E11 SLP937 P0000 T10721100 FZRANO